createdAt,value
2023-05-03T00:02:22.152Z,9.94
2023-05-03T00:05:26.126Z,9.99
2023-05-03T00:08:28.301Z,10.01
2023-05-03T00:11:32.695Z,9.97
2023-05-03T00:14:35.636Z,9.97
2023-05-03T00:17:39.023Z,9.99
2023-05-03T00:20:40.802Z,9.90
2023-05-03T00:23:42.988Z,9.88
2023-05-03T00:26:44.847Z,9.97
2023-05-03T00:29:46.764Z,9.95
2023-05-03T00:32:52.461Z,10.05
2023-05-03T00:35:54.951Z,10.09
2023-05-03T00:38:57.502Z,10.13
2023-05-03T00:41:59.813Z,10.14
2023-05-03T00:45:02.940Z,10.13
2023-05-03T00:48:06.550Z,10.17
2023-05-03T00:51:08.981Z,10.13
2023-05-03T00:54:11.471Z,10.05
2023-05-03T00:57:16.041Z,10.07
2023-05-03T01:00:18.492Z,10.10
2023-05-03T01:03:24.356Z,10.10
2023-05-03T01:06:36.252Z,10.11
2023-05-03T01:09:46.331Z,10.10
2023-05-03T01:12:55.916Z,10.02
2023-05-03T01:16:04.714Z,10.04
2023-05-03T01:19:25.573Z,10.05
2023-05-03T01:22:35.420Z,9.99
2023-05-03T01:25:38.558Z,9.95
2023-05-03T01:28:40.599Z,10.00
2023-05-03T01:31:53.418Z,9.90
2023-05-03T01:35:04.162Z,9.88
2023-05-03T01:38:09.859Z,9.80
2023-05-03T01:41:18.512Z,9.77
2023-05-03T01:44:23.128Z,9.81
2023-05-03T01:47:25.022Z,9.76
2023-05-03T01:50:27.410Z,9.79
2023-05-03T01:53:29.624Z,9.63
2023-05-03T01:56:35.456Z,9.57
2023-05-03T01:59:37.206Z,9.61
2023-05-03T02:02:39.003Z,9.68
2023-05-03T02:05:41.061Z,9.69
2023-05-03T02:08:45.163Z,9.77
2023-05-03T02:11:48.520Z,9.74
2023-05-03T02:14:50.502Z,9.76
2023-05-03T02:17:52.490Z,9.74
2023-05-03T02:20:55.409Z,9.78
2023-05-03T02:23:57.408Z,9.85
2023-05-03T02:27:02.797Z,9.83
2023-05-03T02:30:05.823Z,9.80
2023-05-03T02:33:08.373Z,9.83
2023-05-03T02:36:12.746Z,9.81
2023-05-03T02:39:15.233Z,9.80
2023-05-03T02:42:18.450Z,9.78
2023-05-03T02:45:21.267Z,9.77
2023-05-03T02:48:23.331Z,9.65
2023-05-03T02:51:25.334Z,9.72
2023-05-03T02:54:29.299Z,9.74
2023-05-03T02:57:32.865Z,9.75
2023-05-03T03:00:35.353Z,9.71
2023-05-03T03:03:40.280Z,9.63
2023-05-03T03:06:42.137Z,9.69
2023-05-03T03:09:44.002Z,9.69
2023-05-03T03:12:49.512Z,9.72
2023-05-03T03:15:52.225Z,9.66
2023-05-03T03:18:54.987Z,9.67
2023-05-03T03:21:56.779Z,9.65
2023-05-03T03:24:58.846Z,9.55
2023-05-03T03:28:03.055Z,9.53
2023-05-03T03:31:05.201Z,9.58
2023-05-03T03:34:08.036Z,9.62
2023-05-03T03:37:09.759Z,9.62
2023-05-03T03:40:15.601Z,9.63
2023-05-03T03:43:20.403Z,9.66
2023-05-03T03:46:22.993Z,9.69
2023-05-03T03:49:24.904Z,9.57
2023-05-03T03:52:26.629Z,9.62
2023-05-03T03:55:28.908Z,9.51
2023-05-03T03:58:32.181Z,9.52
2023-05-03T04:01:34.487Z,9.36
2023-05-03T04:04:37.701Z,9.45
2023-05-03T04:07:39.701Z,9.42
2023-05-03T04:10:41.713Z,9.38
2023-05-03T04:13:48.576Z,9.26
2023-05-03T04:16:50.671Z,9.26
2023-05-03T04:19:52.774Z,9.29
2023-05-03T04:22:55.381Z,9.21
2023-05-03T04:25:57.499Z,9.29
2023-05-03T04:29:00.735Z,9.31
2023-05-03T04:32:03.601Z,9.24
2023-05-03T04:35:06.229Z,9.28
2023-05-03T04:38:08.302Z,9.19
2023-05-03T04:41:16.126Z,9.04
2023-05-03T04:44:19.692Z,9.08
2023-05-03T04:47:21.773Z,9.14
2023-05-03T04:50:24.764Z,9.24
2023-05-03T04:53:27.220Z,9.29
2023-05-03T04:56:30.265Z,9.35
2023-05-03T04:59:36.300Z,9.43
2023-05-03T05:02:40.013Z,9.47
2023-05-03T05:05:41.867Z,9.50
2023-05-03T05:08:43.728Z,9.49
2023-05-03T05:11:45.817Z,9.45
2023-05-03T05:14:49.009Z,9.49
2023-05-03T05:17:53.479Z,9.55
2023-05-03T05:20:57.973Z,9.51
2023-05-03T05:24:00.160Z,9.51
2023-05-03T05:27:02.043Z,9.59
2023-05-03T05:30:06.668Z,9.55
2023-05-03T05:33:11.319Z,9.63
2023-05-03T05:36:13.800Z,9.70
2023-05-03T05:39:18.128Z,9.64
2023-05-03T05:42:19.966Z,9.74
2023-05-03T05:45:29.106Z,9.77
2023-05-03T05:48:31.429Z,9.77
2023-05-03T05:51:33.245Z,9.70
2023-05-03T05:54:35.283Z,9.66
2023-05-03T05:57:39.746Z,9.52
2023-05-03T06:00:42.927Z,9.50
2023-05-03T06:03:44.753Z,9.69
2023-05-03T06:06:49.264Z,9.65
2023-05-03T06:09:54.064Z,9.63
2023-05-03T06:12:55.923Z,9.47
2023-05-03T06:15:59.136Z,9.52
2023-05-03T06:19:00.976Z,9.59
2023-05-03T06:22:03.039Z,9.63
2023-05-03T06:25:05.947Z,9.54
2023-05-03T06:28:07.915Z,9.49
2023-05-03T06:31:11.293Z,9.52
2023-05-03T06:34:15.368Z,9.71
2023-05-03T06:37:17.531Z,9.83
2023-05-03T06:40:19.416Z,9.86
2023-05-03T06:43:23.620Z,9.98
2023-05-03T06:46:28.491Z,10.25
2023-05-03T06:49:30.806Z,10.30
2023-05-03T06:52:34.964Z,10.38
2023-05-03T06:55:37.042Z,10.49
2023-05-03T06:58:38.912Z,10.52
2023-05-03T07:01:42.491Z,10.62
2023-05-03T07:04:45.255Z,10.73
2023-05-03T07:07:48.602Z,10.86
2023-05-03T07:10:50.706Z,10.68
2023-05-03T07:13:53.139Z,10.55
2023-05-03T07:16:59.990Z,10.35
2023-05-03T07:20:03.241Z,10.29
2023-05-03T07:23:05.433Z,10.20
2023-05-03T07:26:07.824Z,10.52
2023-05-03T07:29:12.390Z,10.72
2023-05-03T07:32:16.111Z,10.82
2023-05-03T07:35:18.181Z,10.89
2023-05-03T07:38:22.884Z,10.77
2023-05-03T07:41:25.002Z,10.41
2023-05-03T07:44:27.101Z,10.17
2023-05-03T07:47:30.313Z,10.07
2023-05-03T07:50:32.966Z,10.12
2023-05-03T07:53:35.356Z,10.05
2023-05-03T07:56:38.478Z,10.07
2023-05-03T07:59:40.584Z,10.15
2023-05-03T08:02:44.171Z,10.13
2023-05-03T08:05:46.238Z,10.32
2023-05-03T08:08:48.080Z,10.57
2023-05-03T08:11:49.910Z,10.82
2023-05-03T08:14:53.140Z,11.00
2023-05-03T08:17:57.859Z,11.08
2023-05-03T08:20:59.882Z,11.18
2023-05-03T08:24:02.045Z,11.25
2023-05-03T08:27:05.349Z,11.33
2023-05-03T08:30:08.339Z,11.40
2023-05-03T08:33:11.520Z,11.42
2023-05-03T08:36:13.276Z,11.39
2023-05-03T08:39:16.450Z,11.47
2023-05-03T08:42:19.140Z,11.33
2023-05-03T08:45:20.944Z,11.42
2023-05-03T08:48:25.092Z,11.49
2023-05-03T08:51:26.948Z,11.57
2023-05-03T08:54:30.504Z,11.50
2023-05-03T08:57:34.115Z,11.56
2023-05-03T09:00:38.330Z,11.59
2023-05-03T09:03:49.763Z,11.68
2023-05-03T09:07:07.464Z,11.69
2023-05-03T09:10:26.125Z,11.73
2023-05-03T09:13:31.513Z,11.69
2023-05-03T09:16:33.362Z,11.77
2023-05-03T09:19:49.649Z,11.82
2023-05-03T09:22:51.839Z,11.88
2023-05-03T09:25:55.098Z,11.97
2023-05-03T09:28:59.377Z,12.04
2023-05-03T09:32:03.542Z,12.07
2023-05-03T09:35:16.340Z,12.15
2023-05-03T09:38:27.123Z,12.12
2023-05-03T09:41:30.203Z,12.15
2023-05-03T09:44:42.347Z,12.22
2023-05-03T09:47:50.214Z,12.27
2023-05-03T09:50:54.687Z,12.28
2023-05-03T09:53:56.710Z,12.25
2023-05-03T09:56:59.089Z,12.30
2023-05-03T10:00:00.936Z,12.30
2023-05-03T10:03:07.676Z,12.39
2023-05-03T10:06:23.001Z,12.45
2023-05-03T10:09:31.923Z,12.40
2023-05-03T10:12:34.892Z,12.39
2023-05-03T10:15:38.192Z,12.41
2023-05-03T10:18:47.897Z,12.37
2023-05-03T10:21:58.041Z,12.30
2023-05-03T10:25:11.175Z,12.36
2023-05-03T10:28:14.556Z,12.32
2023-05-03T10:31:48.280Z,12.28
2023-05-03T10:34:57.024Z,12.30
2023-05-03T10:38:17.057Z,12.31
2023-05-03T10:41:24.696Z,12.29
2023-05-03T10:44:27.796Z,12.30
2023-05-03T10:47:30.630Z,12.39
2023-05-03T10:50:32.462Z,12.34
2023-05-03T10:53:41.390Z,12.37
2023-05-03T10:56:54.576Z,12.46
2023-05-03T10:59:56.828Z,12.55
2023-05-03T11:03:36.535Z,12.82
2023-05-03T11:06:43.524Z,13.08
2023-05-03T11:09:47.715Z,13.23
2023-05-03T11:12:51.890Z,13.45
2023-05-03T11:15:55.055Z,13.46
2023-05-03T11:18:57.378Z,13.33
2023-05-03T11:22:03.075Z,13.23
2023-05-03T11:25:11.122Z,13.16
2023-05-03T11:28:13.138Z,13.25
2023-05-03T11:31:14.891Z,13.31
2023-05-03T11:34:16.752Z,13.40
2023-05-03T11:37:18.893Z,13.34
2023-05-03T11:40:25.049Z,13.28
2023-05-03T11:43:28.134Z,13.40
2023-05-03T11:46:34.489Z,13.40
2023-05-03T11:49:36.411Z,13.68
2023-05-03T11:52:39.286Z,13.78
2023-05-03T11:55:45.246Z,13.78
2023-05-03T11:58:51.462Z,13.94
2023-05-03T12:01:54.030Z,14.30
2023-05-03T12:04:58.086Z,14.20
2023-05-03T12:08:01.679Z,14.31
2023-05-03T12:11:07.091Z,14.29
2023-05-03T12:14:10.596Z,14.36
2023-05-03T12:17:15.521Z,14.49
2023-05-03T12:23:26.542Z,14.52
2023-05-03T12:26:30.142Z,14.72
2023-05-03T12:29:35.575Z,14.71
2023-05-03T12:32:39.331Z,14.69
2023-05-03T12:35:41.735Z,14.69
2023-05-03T12:38:45.232Z,14.71
2023-05-03T12:44:58.320Z,14.85
2023-05-03T12:48:00.470Z,14.94
2023-05-03T12:51:18.654Z,15.17
2023-05-03T12:54:26.763Z,15.32
2023-05-03T12:57:36.673Z,15.13
2023-05-03T13:00:46.613Z,15.02
2023-05-03T13:07:13.156Z,15.11
2023-05-03T13:13:22.009Z,15.29
2023-05-03T13:16:24.235Z,15.46
2023-05-03T13:19:26.050Z,15.48
2023-05-03T13:22:28.087Z,15.50
2023-05-03T13:25:33.080Z,15.49
2023-05-03T13:28:36.475Z,15.15
2023-05-03T13:31:40.471Z,15.14
2023-05-03T13:34:42.272Z,15.15
2023-05-03T13:37:44.060Z,15.03
2023-05-03T13:40:46.690Z,14.91
2023-05-03T13:43:50.013Z,15.02
2023-05-03T13:46:52.124Z,15.16
2023-05-03T13:49:55.523Z,15.34
2023-05-03T13:52:57.478Z,15.47
2023-05-03T13:56:00.328Z,15.59
2023-05-03T13:59:03.645Z,15.58
2023-05-03T14:02:08.539Z,15.52
2023-05-03T14:05:10.647Z,15.68
2023-05-03T14:08:12.389Z,15.53
2023-05-03T14:11:15.214Z,15.38
2023-05-03T14:14:18.614Z,15.31
2023-05-03T14:17:21.206Z,15.18
2023-05-03T14:20:30.610Z,15.25
2023-05-03T14:23:33.465Z,15.13
2023-05-03T14:26:36.033Z,15.02
2023-05-03T14:29:39.184Z,15.05
2023-05-03T14:32:43.159Z,15.11
2023-05-03T14:35:44.957Z,15.06
2023-05-03T14:38:46.790Z,15.11
2023-05-03T14:41:51.578Z,15.06
2023-05-03T14:44:56.212Z,15.14
2023-05-03T14:47:58.070Z,15.19
2023-05-03T14:51:01.222Z,15.36
2023-05-03T14:54:03.298Z,15.67
2023-05-03T14:57:05.616Z,15.73
2023-05-03T15:00:12.433Z,15.85
2023-05-03T15:03:15.290Z,15.97
2023-05-03T15:06:23.317Z,15.83
2023-05-03T15:09:25.194Z,15.68
2023-05-03T15:12:29.582Z,15.45
2023-05-03T15:15:35.284Z,15.34
2023-05-03T15:18:37.278Z,15.33
2023-05-03T15:21:46.797Z,15.17
2023-05-03T15:24:48.881Z,15.11
2023-05-03T15:27:54.410Z,15.13
2023-05-03T15:30:59.193Z,15.10
2023-05-03T15:34:02.843Z,15.06
2023-05-03T15:37:05.084Z,15.06
2023-05-03T15:40:09.322Z,15.14
2023-05-03T15:43:11.369Z,15.14
2023-05-03T15:46:16.541Z,15.13
2023-05-03T15:49:19.803Z,15.06
2023-05-03T15:52:24.007Z,15.05
2023-05-03T15:55:27.005Z,14.87
2023-05-03T15:58:29.877Z,14.52
2023-05-03T16:01:35.627Z,14.37
2023-05-03T16:04:37.738Z,14.43
2023-05-03T16:07:39.821Z,14.50
2023-05-03T16:10:41.732Z,14.44
2023-05-03T16:13:43.712Z,14.48
2023-05-03T16:16:48.443Z,14.37
2023-05-03T16:19:51.479Z,14.31
2023-05-03T16:22:53.757Z,14.28
2023-05-03T16:25:56.923Z,14.23
2023-05-03T16:28:59.029Z,14.00
2023-05-03T16:32:04.943Z,14.08
2023-05-03T16:35:07.537Z,13.95
2023-05-03T16:38:09.371Z,13.87
2023-05-03T16:41:11.151Z,13.96
2023-05-03T16:44:13.186Z,13.97
2023-05-03T16:47:16.379Z,14.00
2023-05-03T16:50:20.098Z,14.05
2023-05-03T16:53:22.268Z,14.19
2023-05-03T16:56:24.629Z,14.27
2023-05-03T16:59:27.110Z,14.57
2023-05-03T17:02:30.306Z,15.03
2023-05-03T17:05:32.467Z,15.32
2023-05-03T17:08:35.490Z,15.45
2023-05-03T17:11:37.589Z,15.72
2023-05-03T17:14:40.079Z,15.92
2023-05-03T17:17:45.692Z,16.07
2023-05-03T17:20:47.808Z,16.25
2023-05-03T17:23:49.661Z,16.43
2023-05-03T17:26:51.747Z,16.29
2023-05-03T17:29:53.916Z,16.35
2023-05-03T17:32:58.864Z,16.27
2023-05-03T17:36:02.245Z,16.30
2023-05-03T17:39:04.415Z,16.25
2023-05-03T17:42:06.231Z,15.98
2023-05-03T17:45:11.075Z,15.61
2023-05-03T17:48:14.705Z,15.32
2023-05-03T17:51:16.774Z,15.09
2023-05-03T17:54:21.185Z,14.94
2023-05-03T17:57:23.696Z,14.85
2023-05-03T18:00:26.402Z,14.63
2023-05-03T18:03:29.925Z,14.55
2023-05-03T18:06:34.786Z,14.36
2023-05-03T18:09:38.442Z,14.26
2023-05-03T18:12:43.030Z,14.25
2023-05-03T18:15:46.865Z,14.13
2023-05-03T18:18:51.029Z,14.08
2023-05-03T18:21:53.475Z,14.10
2023-05-03T18:24:55.912Z,14.02
2023-05-03T18:27:58.023Z,13.95
2023-05-03T18:31:00.027Z,13.82
2023-05-03T18:34:04.096Z,13.66
2023-05-03T18:37:06.729Z,13.56
2023-05-03T18:40:11.106Z,13.44
2023-05-03T18:43:15.717Z,13.40
2023-05-03T18:46:18.742Z,13.35
2023-05-03T18:49:24.265Z,13.20
2023-05-03T18:52:26.646Z,13.16
2023-05-03T18:55:29.530Z,13.18
2023-05-03T18:58:33.505Z,12.99
2023-05-03T19:01:35.804Z,12.93
2023-05-03T19:04:44.402Z,12.95
2023-05-03T19:07:48.287Z,12.75
2023-05-03T19:10:50.537Z,12.59
2023-05-03T19:13:54.240Z,12.62
2023-05-03T19:16:57.887Z,12.65
2023-05-03T19:20:04.059Z,12.66
2023-05-03T19:23:07.771Z,12.65
2023-05-03T19:26:10.836Z,12.61
2023-05-03T19:29:12.732Z,12.54
2023-05-03T19:32:18.863Z,12.32
2023-05-03T19:35:22.726Z,11.81
2023-05-03T19:38:35.325Z,11.71
2023-05-03T19:41:38.475Z,11.22
2023-05-03T19:44:41.715Z,11.33
2023-05-03T19:47:44.300Z,11.24
2023-05-03T19:50:48.167Z,10.84
2023-05-03T19:53:51.720Z,10.72
2023-05-03T19:56:54.000Z,10.50
2023-05-03T19:59:56.505Z,10.54
2023-05-03T20:03:00.456Z,10.42
2023-05-03T20:06:03.951Z,10.42
2023-05-03T20:09:08.061Z,10.04
2023-05-03T20:12:12.161Z,9.89
2023-05-03T20:15:14.128Z,10.02
2023-05-03T20:18:16.961Z,9.95
2023-05-03T20:21:20.653Z,9.71
2023-05-03T20:24:23.949Z,9.46
2023-05-03T20:27:26.175Z,9.37
2023-05-03T20:30:33.476Z,9.50
2023-05-03T20:33:36.383Z,9.31
2023-05-03T20:36:39.530Z,9.11
2023-05-03T20:39:44.333Z,9.00
2023-05-03T20:42:46.709Z,8.91
2023-05-03T20:45:48.582Z,9.14
2023-05-03T20:48:51.604Z,9.02
2023-05-03T20:51:55.517Z,9.11
2023-05-03T20:54:58.351Z,9.10
2023-05-03T20:58:05.277Z,9.32
2023-05-03T21:01:08.860Z,9.32
2023-05-03T21:04:10.696Z,8.99
2023-05-03T21:07:16.681Z,9.16
2023-05-03T21:10:19.758Z,9.09
2023-05-03T21:13:24.346Z,9.10
2023-05-03T21:16:26.272Z,9.33
2023-05-03T21:19:28.029Z,9.34
2023-05-03T21:22:31.215Z,9.19
2023-05-03T21:25:33.258Z,9.10
2023-05-03T21:28:35.166Z,9.13
2023-05-03T21:31:37.220Z,9.02
2023-05-03T21:34:39.210Z,9.21
2023-05-03T21:37:43.448Z,9.37
2023-05-03T21:40:45.620Z,9.50
2023-05-03T21:43:49.460Z,9.64
2023-05-03T21:46:51.848Z,9.70
2023-05-03T21:49:53.910Z,9.73
2023-05-03T21:52:57.806Z,9.88
2023-05-03T21:55:59.785Z,9.91
2023-05-03T21:59:01.983Z,9.86
2023-05-03T22:02:04.301Z,10.00
2023-05-03T22:05:07.522Z,10.04
2023-05-03T22:08:11.133Z,10.00
2023-05-03T22:11:13.141Z,10.02
2023-05-03T22:14:15.606Z,9.96
2023-05-03T22:17:17.947Z,10.01
2023-05-03T22:20:21.345Z,10.01
2023-05-03T22:23:25.275Z,9.99
2023-05-03T22:26:27.830Z,10.02
2023-05-03T22:29:29.638Z,10.06
2023-05-03T22:32:34.391Z,9.83
2023-05-03T22:35:38.028Z,9.73
2023-05-03T22:38:42.852Z,9.75
2023-05-03T22:41:45.402Z,9.75
2023-05-03T22:44:47.267Z,9.73
2023-05-03T22:47:49.574Z,9.80
2023-05-03T22:50:52.426Z,9.66
2023-05-03T22:53:55.927Z,9.52
2023-05-03T22:56:58.005Z,9.43
2023-05-03T23:00:00.981Z,9.57
2023-05-03T23:03:02.831Z,9.69
2023-05-03T23:06:05.572Z,9.74
2023-05-03T23:09:11.171Z,9.75
2023-05-03T23:12:13.215Z,9.75
2023-05-03T23:15:15.077Z,9.69
2023-05-03T23:18:18.952Z,9.75
2023-05-03T23:21:21.033Z,9.71
2023-05-03T23:24:29.047Z,9.75
2023-05-03T23:27:31.004Z,9.68
2023-05-03T23:30:34.234Z,9.75
2023-05-03T23:33:36.642Z,9.65
2023-05-03T23:36:38.721Z,9.71
2023-05-03T23:39:44.855Z,9.66
2023-05-03T23:42:49.206Z,9.63
2023-05-03T23:45:51.621Z,9.44
2023-05-03T23:48:57.717Z,9.49
2023-05-03T23:52:00.384Z,9.54
2023-05-03T23:55:06.003Z,9.56
2023-05-03T23:58:08.787Z,9.59
